sensor_id;sensor_type;location;lat;lon;timestamp;P1;durP1;ratioP1;P2;durP2;ratioP2
69596;SDS011;70000;51.176;-115.568;2023-07-08T00:00:56;12.50;;;8.90;;
69596;SDS011;70000;51.176;-115.568;2023-07-08T00:03:28;12.60;;;8.40;;
69596;SDS011;70000;51.176;-115.568;2023-07-08T00:05:57;11.60;;;8.40;;
69596;SDS011;70000;51.176;-115.568;2023-07-08T00:08:27;11.30;;;8.70;;
69596;SDS011;70000;51.176;-115.568;2023-07-08T00:10:56;12.10;;;8.80;;
69596;SDS011;70000;51.176;-115.568;2023-07-08T00:13:25;12.20;;;9.20;;
69596;SDS011;70000;51.176;-115.568;2023-07-08T00:15:56;12.60;;;8.60;;
69596;SDS011;70000;51.176;-115.568;2023-07-08T00:18:26;11.70;;;8.60;;
69596;SDS011;70000;51.176;-115.568;2023-07-08T00:20:55;12.80;;;8.80;;
69596;SDS011;70000;51.176;-115.568;2023-07-08T00:23:23;11.50;;;8.80;;
69596;SDS011;70000;51.176;-115.568;2023-07-08T00:25:52;11.80;;;8.30;;
69596;SDS011;70000;51.176;-115.568;2023-07-08T00:28:21;10.80;;;8.10;;
69596;SDS011;70000;51.176;-115.568;2023-07-08T00:30:50;11.80;;;8.20;;
69596;SDS011;70000;51.176;-115.568;2023-07-08T00:33:20;11.40;;;8.00;;
69596;SDS011;70000;51.176;-115.568;2023-07-08T00:35:51;10.70;;;8.00;;
69596;SDS011;70000;51.176;-115.568;2023-07-08T00:38:23;11.10;;;7.90;;
69596;SDS011;70000;51.176;-115.568;2023-07-08T00:43:43;10.80;;;7.90;;
69596;SDS011;70000;51.176;-115.568;2023-07-08T00:52:27;11.00;;;8.50;;
69596;SDS011;70000;51.176;-115.568;2023-07-08T00:55:06;10.60;;;8.00;;
69596;SDS011;70000;51.176;-115.568;2023-07-08T00:57:39;11.40;;;8.90;;
69596;SDS011;70000;51.176;-115.568;2023-07-08T01:00:22;11.00;;;8.40;;
69596;SDS011;70000;51.176;-115.568;2023-07-08T01:03:05;11.50;;;8.90;;
69596;SDS011;70000;51.176;-115.568;2023-07-08T01:06:13;15.70;;;8.80;;
69596;SDS011;70000;51.176;-115.568;2023-07-08T01:12:56;12.10;;;9.70;;
69596;SDS011;70000;51.176;-115.568;2023-07-08T01:15:52;18.00;;;9.90;;
69596;SDS011;70000;51.176;-115.568;2023-07-08T01:18:30;12.40;;;9.10;;
69596;SDS011;70000;51.176;-115.568;2023-07-08T01:21:36;12.30;;;9.40;;
69596;SDS011;70000;51.176;-115.568;2023-07-08T01:24:12;13.20;;;8.90;;
69596;SDS011;70000;51.176;-115.568;2023-07-08T01:26:43;12.60;;;9.30;;
69596;SDS011;70000;51.176;-115.568;2023-07-08T01:29:20;13.10;;;8.80;;
69596;SDS011;70000;51.176;-115.568;2023-07-08T01:31:49;13.00;;;9.00;;
69596;SDS011;70000;51.176;-115.568;2023-07-08T01:34:18;15.90;;;9.90;;
69596;SDS011;70000;51.176;-115.568;2023-07-08T01:36:52;15.60;;;9.90;;
69596;SDS011;70000;51.176;-115.568;2023-07-08T01:39:24;14.10;;;9.50;;
69596;SDS011;70000;51.176;-115.568;2023-07-08T01:41:58;13.80;;;10.10;;
69596;SDS011;70000;51.176;-115.568;2023-07-08T01:44:33;13.20;;;10.00;;
69596;SDS011;70000;51.176;-115.568;2023-07-08T01:47:13;13.20;;;9.50;;
69596;SDS011;70000;51.176;-115.568;2023-07-08T01:49:47;15.00;;;9.60;;
69596;SDS011;70000;51.176;-115.568;2023-07-08T01:52:17;12.50;;;9.00;;
69596;SDS011;70000;51.176;-115.568;2023-07-08T01:54:55;13.80;;;9.50;;
69596;SDS011;70000;51.176;-115.568;2023-07-08T01:57:26;13.20;;;9.60;;
69596;SDS011;70000;51.176;-115.568;2023-07-08T01:59:54;13.40;;;9.20;;
69596;SDS011;70000;51.176;-115.568;2023-07-08T02:02:22;14.40;;;9.80;;
69596;SDS011;70000;51.176;-115.568;2023-07-08T02:04:51;13.40;;;9.40;;
69596;SDS011;70000;51.176;-115.568;2023-07-08T02:07:19;13.80;;;9.90;;
69596;SDS011;70000;51.176;-115.568;2023-07-08T02:09:48;14.50;;;10.40;;
69596;SDS011;70000;51.176;-115.568;2023-07-08T02:12:16;15.80;;;13.30;;
69596;SDS011;70000;51.176;-115.568;2023-07-08T02:14:45;14.30;;;10.30;;
69596;SDS011;70000;51.176;-115.568;2023-07-08T02:17:13;14.00;;;9.40;;
69596;SDS011;70000;51.176;-115.568;2023-07-08T02:19:45;13.60;;;9.80;;
69596;SDS011;70000;51.176;-115.568;2023-07-08T02:22:13;15.70;;;11.80;;
69596;SDS011;70000;51.176;-115.568;2023-07-08T02:24:41;16.00;;;11.50;;
69596;SDS011;70000;51.176;-115.568;2023-07-08T02:27:10;14.20;;;9.70;;
69596;SDS011;70000;51.176;-115.568;2023-07-08T02:29:41;13.40;;;9.60;;
69596;SDS011;70000;51.176;-115.568;2023-07-08T02:32:10;14.50;;;9.50;;
69596;SDS011;70000;51.176;-115.568;2023-07-08T02:34:41;13.80;;;9.50;;
69596;SDS011;70000;51.176;-115.568;2023-07-08T02:37:10;14.40;;;9.80;;
69596;SDS011;70000;51.176;-115.568;2023-07-08T02:39:39;14.40;;;9.10;;
69596;SDS011;70000;51.176;-115.568;2023-07-08T02:42:11;13.40;;;9.50;;
69596;SDS011;70000;51.176;-115.568;2023-07-08T02:44:39;14.10;;;9.30;;
69596;SDS011;70000;51.176;-115.568;2023-07-08T02:47:08;13.40;;;9.10;;
69596;SDS011;70000;51.176;-115.568;2023-07-08T02:49:39;13.70;;;9.80;;
69596;SDS011;70000;51.176;-115.568;2023-07-08T02:52:08;14.10;;;9.00;;
69596;SDS011;70000;51.176;-115.568;2023-07-08T02:54:36;13.40;;;9.20;;
69596;SDS011;70000;51.176;-115.568;2023-07-08T02:57:05;13.10;;;9.50;;
69596;SDS011;70000;51.176;-115.568;2023-07-08T02:59:33;14.10;;;9.20;;
69596;SDS011;70000;51.176;-115.568;2023-07-08T03:02:01;13.00;;;9.10;;
69596;SDS011;70000;51.176;-115.568;2023-07-08T03:04:30;13.90;;;9.70;;
69596;SDS011;70000;51.176;-115.568;2023-07-08T03:06:58;13.30;;;9.40;;
69596;SDS011;70000;51.176;-115.568;2023-07-08T03:09:28;14.40;;;10.00;;
69596;SDS011;70000;51.176;-115.568;2023-07-08T03:11:59;13.50;;;9.70;;
69596;SDS011;70000;51.176;-115.568;2023-07-08T03:14:31;13.50;;;9.30;;
69596;SDS011;70000;51.176;-115.568;2023-07-08T03:16:59;13.30;;;8.80;;
69596;SDS011;70000;51.176;-115.568;2023-07-08T03:19:28;13.80;;;8.90;;
69596;SDS011;70000;51.176;-115.568;2023-07-08T03:22:00;13.10;;;8.90;;
69596;SDS011;70000;51.176;-115.568;2023-07-08T03:24:30;13.70;;;9.10;;
69596;SDS011;70000;51.176;-115.568;2023-07-08T03:27:02;13.80;;;9.30;;
69596;SDS011;70000;51.176;-115.568;2023-07-08T03:29:35;13.40;;;8.60;;
69596;SDS011;70000;51.176;-115.568;2023-07-08T03:32:05;15.20;;;9.90;;
69596;SDS011;70000;51.176;-115.568;2023-07-08T03:34:40;12.90;;;8.90;;
69596;SDS011;70000;51.176;-115.568;2023-07-08T03:37:14;13.10;;;9.00;;
69596;SDS011;70000;51.176;-115.568;2023-07-08T03:39:43;13.20;;;9.10;;
69596;SDS011;70000;51.176;-115.568;2023-07-08T03:42:22;13.10;;;8.70;;
69596;SDS011;70000;51.176;-115.568;2023-07-08T03:45:13;13.00;;;9.00;;
69596;SDS011;70000;51.176;-115.568;2023-07-08T03:47:47;14.80;;;8.80;;
69596;SDS011;70000;51.176;-115.568;2023-07-08T03:50:47;13.80;;;8.70;;
69596;SDS011;70000;51.176;-115.568;2023-07-08T03:53:31;13.00;;;8.90;;
69596;SDS011;70000;51.176;-115.568;2023-07-08T03:56:23;13.20;;;8.50;;
69596;SDS011;70000;51.176;-115.568;2023-07-08T03:58:56;12.90;;;9.00;;
69596;SDS011;70000;51.176;-115.568;2023-07-08T04:01:38;13.60;;;9.50;;
69596;SDS011;70000;51.176;-115.568;2023-07-08T04:04:19;14.40;;;9.40;;
69596;SDS011;70000;51.176;-115.568;2023-07-08T04:07:06;13.70;;;9.00;;
69596;SDS011;70000;51.176;-115.568;2023-07-08T04:09:35;14.90;;;9.10;;
69596;SDS011;70000;51.176;-115.568;2023-07-08T04:12:22;14.40;;;9.00;;
69596;SDS011;70000;51.176;-115.568;2023-07-08T04:14:52;13.50;;;9.30;;
69596;SDS011;70000;51.176;-115.568;2023-07-08T04:17:24;13.20;;;9.10;;
69596;SDS011;70000;51.176;-115.568;2023-07-08T04:19:55;14.60;;;9.20;;
69596;SDS011;70000;51.176;-115.568;2023-07-08T04:22:25;14.20;;;9.60;;
69596;SDS011;70000;51.176;-115.568;2023-07-08T04:24:59;13.80;;;9.00;;
69596;SDS011;70000;51.176;-115.568;2023-07-08T04:27:31;18.00;;;9.40;;
69596;SDS011;70000;51.176;-115.568;2023-07-08T04:30:21;17.00;;;9.20;;
69596;SDS011;70000;51.176;-115.568;2023-07-08T04:33:52;14.40;;;9.50;;
69596;SDS011;70000;51.176;-115.568;2023-07-08T04:36:47;14.20;;;9.80;;
69596;SDS011;70000;51.176;-115.568;2023-07-08T04:39:48;15.20;;;9.60;;
69596;SDS011;70000;51.176;-115.568;2023-07-08T04:42:22;15.10;;;9.70;;
69596;SDS011;70000;51.176;-115.568;2023-07-08T04:44:54;14.60;;;9.10;;
69596;SDS011;70000;51.176;-115.568;2023-07-08T04:47:57;14.80;;;9.30;;
69596;SDS011;70000;51.176;-115.568;2023-07-08T04:51:20;13.70;;;8.80;;
69596;SDS011;70000;51.176;-115.568;2023-07-08T04:53:56;14.70;;;9.60;;
69596;SDS011;70000;51.176;-115.568;2023-07-08T04:56:44;15.20;;;9.50;;
69596;SDS011;70000;51.176;-115.568;2023-07-08T04:59:25;17.20;;;10.90;;
69596;SDS011;70000;51.176;-115.568;2023-07-08T05:02:00;18.60;;;11.60;;
69596;SDS011;70000;51.176;-115.568;2023-07-08T05:04:33;15.70;;;10.00;;
69596;SDS011;70000;51.176;-115.568;2023-07-08T05:07:08;15.60;;;10.00;;
69596;SDS011;70000;51.176;-115.568;2023-07-08T05:09:54;15.30;;;10.20;;
69596;SDS011;70000;51.176;-115.568;2023-07-08T05:12:38;14.50;;;9.10;;
69596;SDS011;70000;51.176;-115.568;2023-07-08T05:15:19;14.80;;;9.40;;
69596;SDS011;70000;51.176;-115.568;2023-07-08T05:18:08;15.70;;;9.40;;
69596;SDS011;70000;51.176;-115.568;2023-07-08T05:20:43;14.90;;;9.60;;
69596;SDS011;70000;51.176;-115.568;2023-07-08T05:23:27;15.70;;;9.70;;
69596;SDS011;70000;51.176;-115.568;2023-07-08T05:26:53;15.30;;;9.90;;
69596;SDS011;70000;51.176;-115.568;2023-07-08T05:29:23;15.00;;;10.00;;
69596;SDS011;70000;51.176;-115.568;2023-07-08T05:32:08;14.90;;;9.30;;
69596;SDS011;70000;51.176;-115.568;2023-07-08T05:35:26;16.50;;;10.00;;
69596;SDS011;70000;51.176;-115.568;2023-07-08T05:39:07;15.10;;;9.30;;
69596;SDS011;70000;51.176;-115.568;2023-07-08T05:41:48;15.00;;;9.30;;
69596;SDS011;70000;51.176;-115.568;2023-07-08T05:44:39;15.40;;;10.10;;
69596;SDS011;70000;51.176;-115.568;2023-07-08T05:47:13;14.70;;;9.90;;
69596;SDS011;70000;51.176;-115.568;2023-07-08T05:50:41;15.80;;;10.10;;
69596;SDS011;70000;51.176;-115.568;2023-07-08T05:53:36;16.20;;;10.50;;
69596;SDS011;70000;51.176;-115.568;2023-07-08T05:56:42;15.00;;;9.40;;
69596;SDS011;70000;51.176;-115.568;2023-07-08T06:00:28;14.60;;;9.70;;
69596;SDS011;70000;51.176;-115.568;2023-07-08T06:04:16;14.20;;;9.40;;
69596;SDS011;70000;51.176;-115.568;2023-07-08T06:07:40;14.80;;;9.70;;
69596;SDS011;70000;51.176;-115.568;2023-07-08T06:18:45;15.20;;;9.40;;
69596;SDS011;70000;51.176;-115.568;2023-07-08T06:22:03;14.70;;;9.40;;
69596;SDS011;70000;51.176;-115.568;2023-07-08T06:25:12;14.70;;;9.00;;
69596;SDS011;70000;51.176;-115.568;2023-07-08T06:28:51;14.00;;;8.60;;
69596;SDS011;70000;51.176;-115.568;2023-07-08T06:32:53;14.50;;;9.00;;
69596;SDS011;70000;51.176;-115.568;2023-07-08T06:36:35;14.60;;;8.60;;
69596;SDS011;70000;51.176;-115.568;2023-07-08T06:44:26;14.30;;;8.50;;
69596;SDS011;70000;51.176;-115.568;2023-07-08T06:47:16;14.00;;;8.40;;
69596;SDS011;70000;51.176;-115.568;2023-07-08T06:50:12;13.90;;;8.60;;
69596;SDS011;70000;51.176;-115.568;2023-07-08T06:53:32;14.90;;;8.90;;
69596;SDS011;70000;51.176;-115.568;2023-07-08T06:56:28;15.90;;;9.50;;
69596;SDS011;70000;51.176;-115.568;2023-07-08T06:59:19;14.20;;;9.10;;
69596;SDS011;70000;51.176;-115.568;2023-07-08T07:02:10;15.40;;;9.10;;
69596;SDS011;70000;51.176;-115.568;2023-07-08T07:04:53;14.10;;;9.00;;
69596;SDS011;70000;51.176;-115.568;2023-07-08T07:07:46;14.10;;;8.90;;
69596;SDS011;70000;51.176;-115.568;2023-07-08T07:10:31;13.60;;;8.50;;
69596;SDS011;70000;51.176;-115.568;2023-07-08T07:13:31;14.60;;;9.30;;
69596;SDS011;70000;51.176;-115.568;2023-07-08T07:16:37;15.60;;;9.60;;
69596;SDS011;70000;51.176;-115.568;2023-07-08T07:19:50;14.40;;;8.50;;
69596;SDS011;70000;51.176;-115.568;2023-07-08T07:22:44;14.60;;;9.10;;
69596;SDS011;70000;51.176;-115.568;2023-07-08T07:25:42;14.80;;;8.40;;
69596;SDS011;70000;51.176;-115.568;2023-07-08T07:28:38;15.20;;;9.00;;
69596;SDS011;70000;51.176;-115.568;2023-07-08T07:31:32;15.20;;;9.00;;
69596;SDS011;70000;51.176;-115.568;2023-07-08T07:34:26;15.60;;;8.80;;
69596;SDS011;70000;51.176;-115.568;2023-07-08T07:37:12;15.70;;;8.70;;
69596;SDS011;70000;51.176;-115.568;2023-07-08T07:40:12;14.70;;;8.80;;
69596;SDS011;70000;51.176;-115.568;2023-07-08T07:43:09;14.60;;;8.60;;
69596;SDS011;70000;51.176;-115.568;2023-07-08T07:46:07;13.40;;;8.40;;
69596;SDS011;70000;51.176;-115.568;2023-07-08T07:48:55;12.80;;;8.30;;
69596;SDS011;70000;51.176;-115.568;2023-07-08T07:51:56;14.70;;;9.00;;
69596;SDS011;70000;51.176;-115.568;2023-07-08T07:55:10;14.80;;;8.80;;
69596;SDS011;70000;51.176;-115.568;2023-07-08T07:58:13;14.30;;;8.40;;
69596;SDS011;70000;51.176;-115.568;2023-07-08T08:00:46;15.60;;;8.60;;
69596;SDS011;70000;51.176;-115.568;2023-07-08T08:03:50;15.30;;;9.20;;
69596;SDS011;70000;51.176;-115.568;2023-07-08T08:06:38;15.10;;;9.10;;
69596;SDS011;70000;51.176;-115.568;2023-07-08T08:09:12;16.70;;;10.10;;
69596;SDS011;70000;51.176;-115.568;2023-07-08T08:12:02;15.20;;;9.40;;
69596;SDS011;70000;51.176;-115.568;2023-07-08T08:14:44;16.20;;;8.90;;
69596;SDS011;70000;51.176;-115.568;2023-07-08T08:17:16;14.50;;;8.70;;
69596;SDS011;70000;51.176;-115.568;2023-07-08T08:19:52;15.40;;;9.20;;
69596;SDS011;70000;51.176;-115.568;2023-07-08T08:22:24;14.90;;;9.30;;
69596;SDS011;70000;51.176;-115.568;2023-07-08T08:24:58;14.50;;;9.10;;
69596;SDS011;70000;51.176;-115.568;2023-07-08T08:27:35;15.20;;;9.40;;
69596;SDS011;70000;51.176;-115.568;2023-07-08T08:30:08;14.00;;;8.80;;
69596;SDS011;70000;51.176;-115.568;2023-07-08T08:32:45;14.50;;;8.40;;
69596;SDS011;70000;51.176;-115.568;2023-07-08T08:35:26;14.90;;;8.30;;
69596;SDS011;70000;51.176;-115.568;2023-07-08T08:38:03;15.20;;;9.00;;
69596;SDS011;70000;51.176;-115.568;2023-07-08T08:40:39;13.50;;;8.30;;
69596;SDS011;70000;51.176;-115.568;2023-07-08T08:43:36;15.80;;;8.80;;
69596;SDS011;70000;51.176;-115.568;2023-07-08T08:46:27;14.20;;;8.70;;
69596;SDS011;70000;51.176;-115.568;2023-07-08T08:50:02;14.70;;;8.60;;
69596;SDS011;70000;51.176;-115.568;2023-07-08T08:53:00;14.30;;;8.10;;
69596;SDS011;70000;51.176;-115.568;2023-07-08T08:59:55;13.00;;;7.90;;
69596;SDS011;70000;51.176;-115.568;2023-07-08T09:02:51;13.50;;;8.20;;
69596;SDS011;70000;51.176;-115.568;2023-07-08T09:05:38;16.30;;;8.60;;
69596;SDS011;70000;51.176;-115.568;2023-07-08T09:08:33;15.60;;;9.40;;
69596;SDS011;70000;51.176;-115.568;2023-07-08T09:14:45;14.20;;;8.90;;
69596;SDS011;70000;51.176;-115.568;2023-07-08T09:23:01;14.70;;;8.30;;
69596;SDS011;70000;51.176;-115.568;2023-07-08T09:25:34;14.40;;;9.30;;
69596;SDS011;70000;51.176;-115.568;2023-07-08T09:28:07;14.90;;;8.50;;
69596;SDS011;70000;51.176;-115.568;2023-07-08T09:30:37;14.60;;;8.60;;
69596;SDS011;70000;51.176;-115.568;2023-07-08T09:33:08;15.10;;;9.10;;
69596;SDS011;70000;51.176;-115.568;2023-07-08T09:35:44;14.90;;;8.80;;
69596;SDS011;70000;51.176;-115.568;2023-07-08T09:38:23;14.60;;;8.80;;
69596;SDS011;70000;51.176;-115.568;2023-07-08T09:40:53;14.70;;;8.80;;
69596;SDS011;70000;51.176;-115.568;2023-07-08T09:43:30;14.50;;;8.60;;
69596;SDS011;70000;51.176;-115.568;2023-07-08T09:46:05;14.30;;;8.30;;
69596;SDS011;70000;51.176;-115.568;2023-07-08T09:48:46;16.20;;;9.00;;
69596;SDS011;70000;51.176;-115.568;2023-07-08T09:51:17;14.40;;;9.10;;
69596;SDS011;70000;51.176;-115.568;2023-07-08T09:53:48;14.20;;;8.40;;
69596;SDS011;70000;51.176;-115.568;2023-07-08T09:56:16;15.00;;;8.80;;
69596;SDS011;70000;51.176;-115.568;2023-07-08T09:58:45;16.20;;;9.20;;
69596;SDS011;70000;51.176;-115.568;2023-07-08T10:01:25;15.30;;;8.70;;
69596;SDS011;70000;51.176;-115.568;2023-07-08T10:04:01;15.30;;;8.80;;
69596;SDS011;70000;51.176;-115.568;2023-07-08T10:06:34;13.80;;;8.50;;
69596;SDS011;70000;51.176;-115.568;2023-07-08T10:09:09;14.30;;;8.50;;
69596;SDS011;70000;51.176;-115.568;2023-07-08T10:11:51;21.20;;;12.70;;
69596;SDS011;70000;51.176;-115.568;2023-07-08T10:14:31;16.40;;;10.60;;
69596;SDS011;70000;51.176;-115.568;2023-07-08T10:17:05;20.00;;;13.20;;
69596;SDS011;70000;51.176;-115.568;2023-07-08T10:19:34;17.20;;;10.80;;
69596;SDS011;70000;51.176;-115.568;2023-07-08T10:25:22;14.70;;;8.30;;
69596;SDS011;70000;51.176;-115.568;2023-07-08T10:28:43;14.10;;;8.80;;
69596;SDS011;70000;51.176;-115.568;2023-07-08T10:31:33;14.10;;;8.60;;
69596;SDS011;70000;51.176;-115.568;2023-07-08T10:34:31;13.60;;;8.40;;
69596;SDS011;70000;51.176;-115.568;2023-07-08T10:37:22;15.10;;;9.20;;
69596;SDS011;70000;51.176;-115.568;2023-07-08T10:43:36;13.80;;;8.50;;
69596;SDS011;70000;51.176;-115.568;2023-07-08T10:46:17;14.50;;;8.50;;
69596;SDS011;70000;51.176;-115.568;2023-07-08T10:54:57;16.10;;;8.90;;
69596;SDS011;70000;51.176;-115.568;2023-07-08T11:04:02;13.80;;;8.50;;
69596;SDS011;70000;51.176;-115.568;2023-07-08T11:07:12;15.00;;;8.70;;
69596;SDS011;70000;51.176;-115.568;2023-07-08T11:09:55;14.00;;;8.60;;
69596;SDS011;70000;51.176;-115.568;2023-07-08T11:12:48;14.60;;;8.70;;
69596;SDS011;70000;51.176;-115.568;2023-07-08T11:15:48;14.70;;;8.80;;
69596;SDS011;70000;51.176;-115.568;2023-07-08T11:18:29;13.70;;;8.40;;
69596;SDS011;70000;51.176;-115.568;2023-07-08T11:24:14;15.10;;;9.40;;
69596;SDS011;70000;51.176;-115.568;2023-07-08T11:27:46;15.40;;;8.70;;
69596;SDS011;70000;51.176;-115.568;2023-07-08T11:30:29;15.00;;;8.50;;
69596;SDS011;70000;51.176;-115.568;2023-07-08T11:33:36;14.90;;;8.70;;
69596;SDS011;70000;51.176;-115.568;2023-07-08T11:36:50;15.20;;;8.70;;
69596;SDS011;70000;51.176;-115.568;2023-07-08T11:43:13;17.00;;;9.40;;
69596;SDS011;70000;51.176;-115.568;2023-07-08T11:45:55;15.50;;;9.00;;
69596;SDS011;70000;51.176;-115.568;2023-07-08T11:48:45;15.70;;;9.40;;
69596;SDS011;70000;51.176;-115.568;2023-07-08T11:52:07;15.30;;;8.40;;
69596;SDS011;70000;51.176;-115.568;2023-07-08T11:55:46;14.40;;;8.90;;
69596;SDS011;70000;51.176;-115.568;2023-07-08T11:59:00;15.60;;;9.80;;
69596;SDS011;70000;51.176;-115.568;2023-07-08T12:01:52;15.40;;;8.90;;
69596;SDS011;70000;51.176;-115.568;2023-07-08T12:04:35;16.90;;;9.50;;
69596;SDS011;70000;51.176;-115.568;2023-07-08T12:07:40;16.30;;;9.60;;
69596;SDS011;70000;51.176;-115.568;2023-07-08T12:10:51;17.70;;;9.90;;
69596;SDS011;70000;51.176;-115.568;2023-07-08T12:13:23;16.40;;;9.40;;
69596;SDS011;70000;51.176;-115.568;2023-07-08T12:15:57;16.10;;;9.90;;
69596;SDS011;70000;51.176;-115.568;2023-07-08T12:18:35;16.60;;;9.60;;
69596;SDS011;70000;51.176;-115.568;2023-07-08T12:21:18;16.00;;;9.20;;
69596;SDS011;70000;51.176;-115.568;2023-07-08T12:24:44;14.20;;;8.30;;
69596;SDS011;70000;51.176;-115.568;2023-07-08T12:27:31;16.40;;;9.10;;
69596;SDS011;70000;51.176;-115.568;2023-07-08T12:30:49;15.80;;;8.00;;
69596;SDS011;70000;51.176;-115.568;2023-07-08T12:33:35;15.90;;;8.60;;
69596;SDS011;70000;51.176;-115.568;2023-07-08T12:36:28;16.50;;;8.20;;
69596;SDS011;70000;51.176;-115.568;2023-07-08T12:39:05;15.90;;;9.10;;
69596;SDS011;70000;51.176;-115.568;2023-07-08T12:41:54;16.70;;;9.30;;
69596;SDS011;70000;51.176;-115.568;2023-07-08T12:44:39;15.50;;;8.40;;
69596;SDS011;70000;51.176;-115.568;2023-07-08T12:47:29;15.90;;;8.30;;
69596;SDS011;70000;51.176;-115.568;2023-07-08T12:50:36;15.10;;;8.30;;
69596;SDS011;70000;51.176;-115.568;2023-07-08T12:53:05;17.50;;;9.50;;
69596;SDS011;70000;51.176;-115.568;2023-07-08T12:55:39;16.20;;;8.90;;
69596;SDS011;70000;51.176;-115.568;2023-07-08T12:58:15;15.40;;;8.20;;
69596;SDS011;70000;51.176;-115.568;2023-07-08T13:00:57;14.60;;;7.90;;
69596;SDS011;70000;51.176;-115.568;2023-07-08T13:03:30;15.30;;;9.30;;
69596;SDS011;70000;51.176;-115.568;2023-07-08T13:06:09;16.30;;;9.40;;
69596;SDS011;70000;51.176;-115.568;2023-07-08T13:08:39;16.30;;;8.90;;
69596;SDS011;70000;51.176;-115.568;2023-07-08T13:11:11;15.10;;;9.20;;
69596;SDS011;70000;51.176;-115.568;2023-07-08T13:13:59;14.90;;;8.20;;
69596;SDS011;70000;51.176;-115.568;2023-07-08T13:16:33;16.30;;;8.80;;
69596;SDS011;70000;51.176;-115.568;2023-07-08T13:19:03;16.60;;;9.60;;
69596;SDS011;70000;51.176;-115.568;2023-07-08T13:21:32;16.50;;;9.20;;
69596;SDS011;70000;51.176;-115.568;2023-07-08T13:24:01;16.10;;;9.10;;
69596;SDS011;70000;51.176;-115.568;2023-07-08T13:26:34;16.90;;;9.00;;
69596;SDS011;70000;51.176;-115.568;2023-07-08T13:36:54;17.20;;;10.30;;
69596;SDS011;70000;51.176;-115.568;2023-07-08T13:39:34;17.50;;;9.50;;
69596;SDS011;70000;51.176;-115.568;2023-07-08T13:42:19;15.10;;;8.80;;
69596;SDS011;70000;51.176;-115.568;2023-07-08T13:45:43;16.80;;;9.20;;
69596;SDS011;70000;51.176;-115.568;2023-07-08T13:49:55;17.20;;;9.30;;
69596;SDS011;70000;51.176;-115.568;2023-07-08T13:53:26;16.80;;;9.00;;
69596;SDS011;70000;51.176;-115.568;2023-07-08T13:56:22;15.00;;;8.60;;
69596;SDS011;70000;51.176;-115.568;2023-07-08T13:59:07;15.70;;;8.50;;
69596;SDS011;70000;51.176;-115.568;2023-07-08T14:01:56;15.60;;;8.70;;
69596;SDS011;70000;51.176;-115.568;2023-07-08T14:05:00;14.90;;;8.20;;
69596;SDS011;70000;51.176;-115.568;2023-07-08T14:07:36;14.40;;;8.50;;
69596;SDS011;70000;51.176;-115.568;2023-07-08T14:10:31;14.70;;;8.40;;
69596;SDS011;70000;51.176;-115.568;2023-07-08T14:13:23;15.00;;;8.20;;
69596;SDS011;70000;51.176;-115.568;2023-07-08T14:16:15;15.10;;;8.70;;
69596;SDS011;70000;51.176;-115.568;2023-07-08T14:19:06;14.90;;;8.80;;
69596;SDS011;70000;51.176;-115.568;2023-07-08T14:22:00;14.20;;;8.30;;
69596;SDS011;70000;51.176;-115.568;2023-07-08T14:24:46;14.20;;;8.10;;
69596;SDS011;70000;51.176;-115.568;2023-07-08T14:27:15;15.60;;;8.90;;
69596;SDS011;70000;51.176;-115.568;2023-07-08T14:30:28;15.70;;;9.10;;
69596;SDS011;70000;51.176;-115.568;2023-07-08T14:33:07;14.60;;;8.80;;
69596;SDS011;70000;51.176;-115.568;2023-07-08T14:36:37;16.40;;;9.80;;
69596;SDS011;70000;51.176;-115.568;2023-07-08T14:39:22;15.80;;;8.80;;
69596;SDS011;70000;51.176;-115.568;2023-07-08T14:42:05;16.20;;;9.50;;
69596;SDS011;70000;51.176;-115.568;2023-07-08T14:45:08;15.70;;;9.80;;
69596;SDS011;70000;51.176;-115.568;2023-07-08T14:47:53;18.80;;;10.70;;
69596;SDS011;70000;51.176;-115.568;2023-07-08T14:50:36;17.10;;;9.90;;
69596;SDS011;70000;51.176;-115.568;2023-07-08T14:53:13;16.20;;;9.60;;
69596;SDS011;70000;51.176;-115.568;2023-07-08T14:55:57;17.00;;;10.10;;
69596;SDS011;70000;51.176;-115.568;2023-07-08T14:58:46;17.00;;;9.90;;
69596;SDS011;70000;51.176;-115.568;2023-07-08T15:01:23;16.80;;;10.60;;
69596;SDS011;70000;51.176;-115.568;2023-07-08T15:03:58;18.00;;;10.30;;
69596;SDS011;70000;51.176;-115.568;2023-07-08T15:06:32;16.50;;;10.30;;
69596;SDS011;70000;51.176;-115.568;2023-07-08T15:09:14;16.50;;;9.90;;
69596;SDS011;70000;51.176;-115.568;2023-07-08T15:12:18;17.90;;;10.00;;
69596;SDS011;70000;51.176;-115.568;2023-07-08T15:14:58;17.50;;;10.20;;
69596;SDS011;70000;51.176;-115.568;2023-07-08T15:17:53;17.60;;;10.70;;
69596;SDS011;70000;51.176;-115.568;2023-07-08T15:20:45;16.80;;;10.00;;
69596;SDS011;70000;51.176;-115.568;2023-07-08T15:23:49;17.00;;;10.60;;
69596;SDS011;70000;51.176;-115.568;2023-07-08T15:26:55;17.70;;;11.00;;
69596;SDS011;70000;51.176;-115.568;2023-07-08T15:29:39;17.60;;;11.30;;
69596;SDS011;70000;51.176;-115.568;2023-07-08T15:32:17;18.20;;;11.00;;
69596;SDS011;70000;51.176;-115.568;2023-07-08T15:35:20;18.60;;;10.90;;
69596;SDS011;70000;51.176;-115.568;2023-07-08T15:38:32;16.80;;;10.40;;
69596;SDS011;70000;51.176;-115.568;2023-07-08T15:41:50;17.80;;;11.00;;
69596;SDS011;70000;51.176;-115.568;2023-07-08T15:48:31;17.10;;;10.60;;
69596;SDS011;70000;51.176;-115.568;2023-07-08T15:51:56;17.00;;;10.50;;
69596;SDS011;70000;51.176;-115.568;2023-07-08T15:54:36;16.50;;;10.40;;
69596;SDS011;70000;51.176;-115.568;2023-07-08T15:57:16;19.20;;;12.10;;
69596;SDS011;70000;51.176;-115.568;2023-07-08T15:59:54;18.70;;;11.40;;
69596;SDS011;70000;51.176;-115.568;2023-07-08T16:02:28;18.30;;;11.90;;
69596;SDS011;70000;51.176;-115.568;2023-07-08T16:05:01;17.30;;;11.00;;
69596;SDS011;70000;51.176;-115.568;2023-07-08T16:07:47;16.50;;;11.00;;
69596;SDS011;70000;51.176;-115.568;2023-07-08T16:10:33;17.30;;;10.60;;
69596;SDS011;70000;51.176;-115.568;2023-07-08T16:13:12;16.50;;;10.80;;
69596;SDS011;70000;51.176;-115.568;2023-07-08T16:15:57;16.60;;;10.90;;
69596;SDS011;70000;51.176;-115.568;2023-07-08T16:18:26;16.60;;;10.50;;
69596;SDS011;70000;51.176;-115.568;2023-07-08T16:20:57;17.00;;;10.70;;
69596;SDS011;70000;51.176;-115.568;2023-07-08T16:23:33;19.30;;;12.30;;
69596;SDS011;70000;51.176;-115.568;2023-07-08T16:26:08;18.20;;;11.10;;
69596;SDS011;70000;51.176;-115.568;2023-07-08T16:29:00;16.90;;;11.00;;
69596;SDS011;70000;51.176;-115.568;2023-07-08T16:32:13;19.80;;;11.10;;
69596;SDS011;70000;51.176;-115.568;2023-07-08T16:34:45;16.50;;;9.80;;
69596;SDS011;70000;51.176;-115.568;2023-07-08T16:37:14;16.30;;;10.20;;
69596;SDS011;70000;51.176;-115.568;2023-07-08T16:39:45;17.40;;;10.80;;
69596;SDS011;70000;51.176;-115.568;2023-07-08T16:42:20;17.40;;;10.40;;
69596;SDS011;70000;51.176;-115.568;2023-07-08T16:44:54;16.60;;;10.70;;
69596;SDS011;70000;51.176;-115.568;2023-07-08T16:47:29;18.80;;;11.00;;
69596;SDS011;70000;51.176;-115.568;2023-07-08T16:49:58;17.10;;;10.80;;
69596;SDS011;70000;51.176;-115.568;2023-07-08T16:52:27;15.80;;;10.20;;